Time;durP1;ratioP1;P1;durP2;ratioP2;P2;SDS_P1;SDS_P2;PMS_P1;PMS_P2;Temp;Humidity;BMP_temperature;BMP_pressure;BME280_temperature;BME280_humidity;BME280_pressure;Samples;Min_cycle;Max_cycle;Signal;HPM_P1;HPM_P2
2023/04/23 00:00:06;;;;;;;0.50;0.50;;;;;;;;;;1032450;28;20027;-73
2023/04/23 00:00:37;;;;;;;1.45;1.35;;;;;;;;;;1028572;28;20030;-73
2023/04/23 00:01:08;;;;;;;0.90;0.70;;;;;;;;;;1028693;28;20073;-73
2023/04/23 00:01:39;;;;;;;2.25;1.38;;;;;;;;;;1028353;28;20114;-73
2023/04/23 00:02:13;;;;;;;0.85;0.80;;;;;;;;;;1024171;28;20372;-73
2023/04/23 00:02:45;;;;;;;4.38;0.70;;;;;;;;;;1028320;28;20018;-73
2023/04/23 00:03:18;;;;;;;1.60;1.50;;;;;;;;;;1024228;29;20529;-73
2023/04/23 00:03:49;;;;;;;1.35;1.10;;;;;;;;;;1024910;28;20062;-73
2023/04/23 00:04:20;;;;;;;2.00;1.40;;;;;;;;;;1028558;28;20031;-73
2023/04/23 00:04:51;;;;;;;2.70;1.83;;;;;;;;;;1028068;28;20023;-73
2023/04/23 00:05:26;;;;;;;0.70;0.70;;;;;;;;;;1028913;28;20471;-73
2023/04/23 00:05:56;;;;;;;2.72;1.33;;;;;;;;;;1032056;28;20026;-73
2023/04/23 00:06:27;;;;;;;2.92;1.48;;;;;;;;;;1027984;28;20030;-73
2023/04/23 00:06:58;;;;;;;1.85;1.08;;;;;;;;;;1028179;28;20019;-73
2023/04/23 00:07:30;;;;;;;1.25;1.15;;;;;;;;;;1028478;28;20442;-73
2023/04/23 00:08:01;;;;;;;2.47;0.93;;;;;;;;;;1027888;28;20022;-73
2023/04/23 00:08:31;;;;;;;1.20;1.10;;;;;;;;;;1032125;28;20470;-73
2023/04/23 00:09:02;;;;;;;1.85;1.33;;;;;;;;;;1032429;28;20072;-73
2023/04/23 00:09:34;;;;;;;1.38;1.02;;;;;;;;;;1032650;28;20595;-73
2023/04/23 00:10:07;;;;;;;2.33;1.23;;;;;;;;;;1031202;28;20108;-73
2023/04/23 00:10:38;;;;;;;0.82;0.63;;;;;;;;;;1030657;28;20025;-73
2023/04/23 00:11:08;;;;;;;1.23;1.15;;;;;;;;;;1032322;28;20029;-73
2023/04/23 00:11:39;;;;;;;4.40;1.20;;;;;;;;;;1032345;28;20566;-73
2023/04/23 00:12:10;;;;;;;1.00;0.88;;;;;;;;;;1032703;28;20110;-73
2023/04/23 00:12:42;;;;;;;12.85;0.88;;;;;;;;;;1032779;28;20031;-73
2023/04/23 00:13:12;;;;;;;0.45;0.45;;;;;;;;;;1028615;28;20399;-73
2023/04/23 00:13:45;;;;;;;1.17;0.77;;;;;;;;;;1028169;28;20023;-73
2023/04/23 00:14:16;;;;;;;0.22;0.22;;;;;;;;;;1028316;28;20105;-73
2023/04/23 00:14:46;;;;;;;1.38;1.27;;;;;;;;;;1028950;28;20027;-73
2023/04/23 00:15:19;;;;;;;0.45;0.45;;;;;;;;;;1030406;28;20030;-73
2023/04/23 00:15:50;;;;;;;1.20;1.10;;;;;;;;;;1032964;28;20069;-73
2023/04/23 00:16:20;;;;;;;0.90;0.73;;;;;;;;;;1033102;28;20398;-73
2023/04/23 00:16:51;;;;;;;0.82;0.82;;;;;;;;;;1028093;28;20053;-73
2023/04/23 00:17:22;;;;;;;1.13;1.08;;;;;;;;;;1028559;28;20046;-73
2023/04/23 00:17:52;;;;;;;9.13;1.13;;;;;;;;;;1028930;28;20078;-73
2023/04/23 00:18:22;;;;;;;0.75;0.75;;;;;;;;;;1028184;28;20081;-73
2023/04/23 00:18:53;;;;;;;2.20;0.95;;;;;;;;;;1029525;28;20014;-73
2023/04/23 00:19:23;;;;;;;4.57;2.22;;;;;;;;;;1028355;28;20015;-73
2023/04/23 00:19:54;;;;;;;3.40;1.65;;;;;;;;;;1028201;28;20165;-73
2023/04/23 00:20:24;;;;;;;1.02;1.02;;;;;;;;;;1024161;28;20030;-73
2023/04/23 00:20:56;;;;;;;1.17;0.88;;;;;;;;;;1024529;28;20027;-73
2023/04/23 00:21:26;;;;;;;2.55;0.82;;;;;;;;;;1024832;29;20050;-73
2023/04/23 00:21:57;;;;;;;1.05;0.85;;;;;;;;;;1024451;28;20162;-73
2023/04/23 00:22:27;;;;;;;2.55;2.10;;;;;;;;;;1027853;28;20372;-73
2023/04/23 00:22:58;;;;;;;1.45;1.10;;;;;;;;;;1028160;28;20019;-73
2023/04/23 00:23:28;;;;;;;1.30;0.98;;;;;;;;;;1028766;28;20015;-73
2023/04/23 00:23:58;;;;;;;1.75;1.42;;;;;;;;;;1028218;28;20035;-73
2023/04/23 00:24:30;;;;;;;1.52;1.42;;;;;;;;;;1027953;28;20026;-73
2023/04/23 00:25:01;;;;;;;4.20;1.88;;;;;;;;;;1028097;28;20085;-73
2023/04/23 00:25:31;;;;;;;1.55;1.27;;;;;;;;;;1028478;28;20561;-73
2023/04/23 00:26:02;;;;;;;8.73;1.58;;;;;;;;;;1027972;28;20109;-73
2023/04/23 00:26:32;;;;;;;6.35;2.17;;;;;;;;;;1028596;28;20070;-73
2023/04/23 00:27:03;;;;;;;3.33;2.50;;;;;;;;;;1028149;28;20467;-73
2023/04/23 00:27:33;;;;;;;1.65;0.57;;;;;;;;;;1026875;28;20015;-73
2023/04/23 00:28:04;;;;;;;3.10;1.27;;;;;;;;;;1032990;28;20021;-73
2023/04/23 00:28:34;;;;;;;2.90;1.23;;;;;;;;;;1032240;28;20363;-73
2023/04/23 00:29:05;;;;;;;14.98;1.75;;;;;;;;;;1035053;28;20033;-73
2023/04/23 00:29:35;;;;;;;0.98;0.98;;;;;;;;;;1029385;28;20114;-73
2023/04/23 00:30:07;;;;;;;1.73;1.60;;;;;;;;;;1026880;28;20466;-73
2023/04/23 00:30:38;;;;;;;1.33;0.63;;;;;;;;;;1024142;29;20034;-73
2023/04/23 00:31:08;;;;;;;2.80;1.63;;;;;;;;;;1020090;29;20488;-73
2023/04/23 00:31:39;;;;;;;3.45;2.25;;;;;;;;;;1021891;29;20081;-73
2023/04/23 00:32:09;;;;;;;1.50;0.82;;;;;;;;;;1024152;28;20110;-73
2023/04/23 00:32:40;;;;;;;2.25;1.10;;;;;;;;;;1027894;28;21625;-73
2023/04/23 00:33:11;;;;;;;0.55;0.52;;;;;;;;;;1032389;28;20022;-73
2023/04/23 00:33:41;;;;;;;6.72;2.00;;;;;;;;;;1032068;28;20084;-73
2023/04/23 00:34:11;;;;;;;8.55;1.23;;;;;;;;;;1032542;28;20506;-73
2023/04/23 00:34:42;;;;;;;4.40;1.45;;;;;;;;;;1028058;28;20101;-73
2023/04/23 00:35:12;;;;;;;5.13;1.48;;;;;;;;;;1028496;28;20015;-73
2023/04/23 00:35:43;;;;;;;0.65;0.50;;;;;;;;;;1027970;28;20054;-73
2023/04/23 00:36:13;;;;;;;2.10;0.82;;;;;;;;;;1028255;28;20053;-73
2023/04/23 00:36:44;;;;;;;0.55;0.45;;;;;;;;;;1028108;28;20109;-72
2023/04/23 00:37:15;;;;;;;0.85;0.85;;;;;;;;;;1032875;28;20041;-73
2023/04/23 00:37:45;;;;;;;3.22;1.15;;;;;;;;;;1027488;28;20170;-73
2023/04/23 00:38:16;;;;;;;2.85;2.35;;;;;;;;;;1028079;28;20084;-73
2023/04/23 00:38:46;;;;;;;2.15;1.23;;;;;;;;;;1028016;28;20019;-73
2023/04/23 00:39:17;;;;;;;6.32;2.53;;;;;;;;;;1028244;28;20098;-73
2023/04/23 00:39:47;;;;;;;1.88;1.42;;;;;;;;;;1027828;28;20031;-73
2023/04/23 00:40:19;;;;;;;2.15;1.48;;;;;;;;;;1032241;28;20045;-73
2023/04/23 00:40:50;;;;;;;7.22;2.50;;;;;;;;;;1032017;28;20014;-73
2023/04/23 00:41:20;;;;;;;1.08;0.98;;;;;;;;;;1032289;28;20105;-73
2023/04/23 00:41:51;;;;;;;6.70;0.70;;;;;;;;;;1027954;28;20062;-73
2023/04/23 00:42:21;;;;;;;2.53;0.98;;;;;;;;;;1027950;28;20023;-73
2023/04/23 00:42:52;;;;;;;9.38;1.02;;;;;;;;;;1027883;28;20494;-73
2023/04/23 00:43:23;;;;;;;1.05;1.00;;;;;;;;;;1027792;28;20026;-73
2023/04/23 00:43:56;;;;;;;0.80;0.80;;;;;;;;;;1028061;28;20542;-73
2023/04/23 00:44:26;;;;;;;3.10;1.10;;;;;;;;;;1028308;28;20022;-73
2023/04/23 00:44:57;;;;;;;1.17;0.85;;;;;;;;;;1031953;28;20487;-73
2023/04/23 00:45:28;;;;;;;4.38;0.98;;;;;;;;;;1032035;28;20041;-73
2023/04/23 00:45:58;;;;;;;1.17;1.10;;;;;;;;;;1032747;28;20025;-71
2023/04/23 00:46:29;;;;;;;0.50;0.50;;;;;;;;;;1027660;28;20019;-71
2023/04/23 00:47:00;;;;;;;0.68;0.52;;;;;;;;;;1028108;28;20565;-71
2023/04/23 00:47:31;;;;;;;0.30;0.30;;;;;;;;;;1027711;28;20030;-72
2023/04/23 00:48:02;;;;;;;1.55;1.02;;;;;;;;;;1028453;28;20090;-73
2023/04/23 00:48:33;;;;;;;1.63;0.63;;;;;;;;;;1032634;28;20104;-72
2023/04/23 00:49:04;;;;;;;2.05;1.38;;;;;;;;;;1028077;28;20066;-72
2023/04/23 00:49:35;;;;;;;1.85;1.27;;;;;;;;;;1027700;28;20430;-71
2023/04/23 00:50:06;;;;;;;0.65;0.65;;;;;;;;;;1027892;28;20026;-72
2023/04/23 00:50:37;;;;;;;1.80;1.52;;;;;;;;;;1027844;28;21538;-74
2023/04/23 00:51:10;;;;;;;1.33;0.82;;;;;;;;;;1028503;28;20011;-72
2023/04/23 00:51:40;;;;;;;2.50;1.00;;;;;;;;;;1027667;28;20030;-71
2023/04/23 00:52:11;;;;;;;2.17;0.85;;;;;;;;;;1022655;29;20019;-71
2023/04/23 00:52:41;;;;;;;0.20;0.20;;;;;;;;;;1023856;29;20034;-71
2023/04/23 00:53:12;;;;;;;3.60;0.73;;;;;;;;;;1020201;29;20024;-71
2023/04/23 00:53:42;;;;;;;2.70;1.85;;;;;;;;;;1023936;28;20602;-71
2023/04/23 00:54:13;;;;;;;8.25;1.17;;;;;;;;;;1028070;28;20514;-71
2023/04/23 00:54:43;;;;;;;2.30;1.23;;;;;;;;;;1027904;28;20022;-71
2023/04/23 00:55:14;;;;;;;3.90;1.73;;;;;;;;;;1032320;28;20556;-71
2023/04/23 00:55:45;;;;;;;0.85;0.70;;;;;;;;;;1032365;28;20034;-71
2023/04/23 00:56:16;;;;;;;5.25;1.38;;;;;;;;;;1028199;28;20017;-71
2023/04/23 00:56:49;;;;;;;3.20;1.00;;;;;;;;;;1028274;28;20094;-71
2023/04/23 00:57:21;;;;;;;1.70;1.08;;;;;;;;;;1027256;28;20058;-71
2023/04/23 00:57:53;;;;;;;8.73;1.20;;;;;;;;;;1028353;28;20050;-71
2023/04/23 00:58:23;;;;;;;1.63;1.13;;;;;;;;;;1032000;28;20122;-71
2023/04/23 00:58:54;;;;;;;13.05;1.33;;;;;;;;;;1032220;28;20036;-71
2023/04/23 00:59:24;;;;;;;1.23;0.47;;;;;;;;;;1032010;28;20121;-71
2023/04/23 00:59:57;;;;;;;0.80;0.80;;;;;;;;;;1031957;28;20462;-71
2023/04/23 01:00:28;;;;;;;2.60;1.88;;;;;;;;;;1032265;28;20033;-71
2023/04/23 01:01:01;;;;;;;4.18;0.60;;;;;;;;;;1032192;28;20037;-71
2023/04/23 01:01:32;;;;;;;0.65;0.63;;;;;;;;;;1032000;28;20372;-71
2023/04/23 01:02:02;;;;;;;1.25;0.73;;;;;;;;;;1027760;28;20019;-71
2023/04/23 01:02:35;;;;;;;2.88;1.20;;;;;;;;;;1028412;28;20037;-71
2023/04/23 01:03:05;;;;;;;5.55;1.75;;;;;;;;;;1027929;28;20025;-71
2023/04/23 01:03:38;;;;;;;1.33;1.00;;;;;;;;;;1027577;28;20038;-71
2023/04/23 01:04:08;;;;;;;0.47;0.38;;;;;;;;;;1027973;28;20541;-71
2023/04/23 01:04:39;;;;;;;1.13;1.05;;;;;;;;;;1027692;28;20110;-71
2023/04/23 01:05:10;;;;;;;2.33;0.73;;;;;;;;;;1028045;28;20030;-71
2023/04/23 01:05:41;;;;;;;1.05;0.95;;;;;;;;;;1027605;28;20033;-71
2023/04/23 01:06:12;;;;;;;1.45;1.35;;;;;;;;;;1028015;28;20022;-71
2023/04/23 01:06:42;;;;;;;0.98;0.90;;;;;;;;;;1028024;28;20038;-71
2023/04/23 01:07:13;;;;;;;0.57;0.57;;;;;;;;;;1028314;28;20053;-71
2023/04/23 01:07:45;;;;;;;3.13;1.42;;;;;;;;;;1027595;28;20034;-71
2023/04/23 01:08:16;;;;;;;2.25;0.85;;;;;;;;;;1027796;28;20030;-71
2023/04/23 01:08:46;;;;;;;1.75;0.93;;;;;;;;;;1027585;28;20918;-71
2023/04/23 01:09:17;;;;;;;0.47;0.40;;;;;;;;;;1028167;28;20077;-71
2023/04/23 01:09:49;;;;;;;2.35;0.60;;;;;;;;;;1027896;28;20097;-71
2023/04/23 01:10:20;;;;;;;0.50;0.43;;;;;;;;;;1028012;28;20022;-71
2023/04/23 01:10:51;;;;;;;3.83;2.28;;;;;;;;;;1032084;28;20471;-71
2023/04/23 01:11:21;;;;;;;1.55;1.45;;;;;;;;;;1032658;28;20022;-71
2023/04/23 01:11:52;;;;;;;2.08;1.52;;;;;;;;;;1033273;28;20368;-71
2023/04/23 01:12:22;;;;;;;1.42;1.13;;;;;;;;;;1027681;28;20490;-73
2023/04/23 01:12:53;;;;;;;2.92;0.77;;;;;;;;;;1027680;28;20494;-73
2023/04/23 01:13:28;;;;;;;0.93;0.80;;;;;;;;;;1027553;28;20027;-72
2023/04/23 01:13:59;;;;;;;0.60;0.60;;;;;;;;;;1027724;28;20110;-72
2023/04/23 01:14:29;;;;;;;1.05;0.80;;;;;;;;;;1027881;28;20027;-72
2023/04/23 01:15:00;;;;;;;2.97;1.60;;;;;;;;;;1027603;28;20019;-71
2023/04/23 01:15:31;;;;;;;9.48;0.98;;;;;;;;;;1027686;28;20038;-71
2023/04/23 01:16:01;;;;;;;1.55;0.60;;;;;;;;;;1028909;28;20029;-71
2023/04/23 01:16:32;;;;;;;1.52;0.88;;;;;;;;;;1032375;28;20202;-73
2023/04/23 01:17:03;;;;;;;2.85;1.65;;;;;;;;;;1027794;28;20022;-73
2023/04/23 01:17:33;;;;;;;0.63;0.57;;;;;;;;;;1027362;28;20039;-72
2023/04/23 01:18:06;;;;;;;1.05;0.95;;;;;;;;;;1028027;28;20019;-72
2023/04/23 01:18:39;;;;;;;5.22;1.38;;;;;;;;;;1028527;28;20526;-72
2023/04/23 01:19:10;;;;;;;0.40;0.40;;;;;;;;;;1032832;28;20030;-72
2023/04/23 01:19:41;;;;;;;0.77;0.55;;;;;;;;;;1031857;28;20018;-72
2023/04/23 01:20:11;;;;;;;1.00;0.90;;;;;;;;;;1032236;28;20145;-72
2023/04/23 01:20:42;;;;;;;1.33;1.23;;;;;;;;;;1031915;28;20105;-72
2023/04/23 01:21:13;;;;;;;1.00;0.65;;;;;;;;;;1028049;28;20574;-72
2023/04/23 01:21:44;;;;;;;2.95;1.02;;;;;;;;;;1027149;28;20050;-72
2023/04/23 01:22:15;;;;;;;1.02;0.80;;;;;;;;;;1027820;28;20075;-72
2023/04/23 01:22:46;;;;;;;13.20;1.15;;;;;;;;;;1024914;28;20081;-72
2023/04/23 01:23:16;;;;;;;0.43;0.43;;;;;;;;;;1028480;28;20042;-72
2023/04/23 01:23:47;;;;;;;0.70;0.70;;;;;;;;;;1026197;28;20027;-72
2023/04/23 01:24:17;;;;;;;1.98;0.90;;;;;;;;;;1025263;28;20034;-72
2023/04/23 01:24:48;;;;;;;2.15;1.23;;;;;;;;;;1027684;28;20022;-71
2023/04/23 01:25:19;;;;;;;0.98;0.70;;;;;;;;;;1027915;28;20026;-71
2023/04/23 01:25:49;;;;;;;1.88;1.23;;;;;;;;;;1027589;28;20546;-71
2023/04/23 01:26:20;;;;;;;5.38;1.63;;;;;;;;;;1028419;28;20022;-71
2023/04/23 01:26:51;;;;;;;0.85;0.85;;;;;;;;;;1027623;28;20029;-74
2023/04/23 01:27:23;;;;;;;1.80;0.50;;;;;;;;;;1027931;28;20027;-72
2023/04/23 01:27:54;;;;;;;2.25;1.95;;;;;;;;;;1032160;28;20022;-73
2023/04/23 01:28:25;;;;;;;2.28;0.80;;;;;;;;;;1032640;28;20018;-72
2023/04/23 01:28:56;;;;;;;3.30;0.95;;;;;;;;;;1032073;28;20077;-72
2023/04/23 01:29:27;;;;;;;1.40;0.98;;;;;;;;;;1026934;28;20483;-72
2023/04/23 01:29:58;;;;;;;3.45;1.48;;;;;;;;;;1027774;28;20034;-72
2023/04/23 01:30:30;;;;;;;3.53;1.92;;;;;;;;;;1027383;28;20021;-72
2023/04/23 01:31:01;;;;;;;12.88;1.38;;;;;;;;;;1028089;28;20042;-72
2023/04/23 01:31:32;;;;;;;14.60;1.88;;;;;;;;;;1027517;28;20018;-72
2023/04/23 01:32:02;;;;;;;3.75;0.93;;;;;;;;;;1027766;28;20479;-72
2023/04/23 01:32:33;;;;;;;4.07;1.60;;;;;;;;;;1027845;28;20633;-72
2023/04/23 01:33:05;;;;;;;6.53;1.30;;;;;;;;;;1032436;28;20849;-72
2023/04/23 01:33:35;;;;;;;2.35;1.83;;;;;;;;;;1027457;28;20088;-72
2023/04/23 01:34:06;;;;;;;2.22;1.33;;;;;;;;;;1027948;28;20034;-72
2023/04/23 01:34:37;;;;;;;2.05;1.05;;;;;;;;;;1027719;28;20094;-73
2023/04/23 01:35:08;;;;;;;4.95;1.58;;;;;;;;;;1028014;28;20086;-73
2023/04/23 01:35:40;;;;;;;11.93;2.00;;;;;;;;;;1027674;28;20026;-72
2023/04/23 01:36:11;;;;;;;3.15;0.80;;;;;;;;;;1027812;28;20368;-72
2023/04/23 01:36:42;;;;;;;1.13;0.98;;;;;;;;;;1027144;28;20093;-72
2023/04/23 01:37:13;;;;;;;2.65;1.60;;;;;;;;;;1027803;28;20019;-72
2023/04/23 01:37:43;;;;;;;2.05;1.42;;;;;;;;;;1028907;28;20026;-72
2023/04/23 01:38:14;;;;;;;2.75;1.15;;;;;;;;;;1032078;28;20030;-71
2023/04/23 01:38:45;;;;;;;1.75;0.77;;;;;;;;;;1027380;28;20018;-71
2023/04/23 01:39:16;;;;;;;1.42;0.88;;;;;;;;;;1027890;28;20525;-71
2023/04/23 01:39:47;;;;;;;3.05;1.58;;;;;;;;;;1027396;28;20065;-71
2023/04/23 01:40:18;;;;;;;14.88;1.63;;;;;;;;;;1028075;28;20031;-71
2023/04/23 01:40:48;;;;;;;1.15;1.05;;;;;;;;;;1023509;29;20023;-71
2023/04/23 01:41:19;;;;;;;0.98;0.75;;;;;;;;;;1023897;28;20023;-72
2023/04/23 01:41:50;;;;;;;3.85;1.35;;;;;;;;;;1027756;28;20030;-72
2023/04/23 01:42:22;;;;;;;1.10;0.40;;;;;;;;;;1028145;28;20023;-72
2023/04/23 01:42:52;;;;;;;0.22;0.22;;;;;;;;;;1032070;28;20038;-72
2023/04/23 01:43:23;;;;;;;1.60;0.63;;;;;;;;;;1027464;28;20050;-72
2023/04/23 01:43:55;;;;;;;0.50;0.25;;;;;;;;;;1027506;28;20023;-72
2023/04/23 01:44:26;;;;;;;2.08;0.70;;;;;;;;;;1027903;28;20055;-71
2023/04/23 01:44:56;;;;;;;3.35;1.67;;;;;;;;;;1027871;28;20035;-71
2023/04/23 01:45:27;;;;;;;0.90;0.55;;;;;;;;;;1027913;28;20380;-71
2023/04/23 01:45:58;;;;;;;0.98;0.90;;;;;;;;;;1027819;28;20034;-71
2023/04/23 01:46:29;;;;;;;1.10;0.85;;;;;;;;;;1027693;28;20053;-71
2023/04/23 01:47:00;;;;;;;8.40;1.13;;;;;;;;;;1032595;28;20038;-71
2023/04/23 01:47:30;;;;;;;1.58;1.48;;;;;;;;;;1031716;28;20026;-71
2023/04/23 01:48:01;;;;;;;10.35;1.23;;;;;;;;;;1032048;28;20038;-71
2023/04/23 01:48:31;;;;;;;1.92;1.73;;;;;;;;;;1031835;28;20023;-71
2023/04/23 01:49:02;;;;;;;1.05;0.95;;;;;;;;;;1027782;28;20039;-71
2023/04/23 01:49:32;;;;;;;1.77;0.63;;;;;;;;;;1028323;28;20025;-73
2023/04/23 01:50:04;;;;;;;3.53;1.60;;;;;;;;;;1027636;28;20050;-73
2023/04/23 01:50:35;;;;;;;3.58;1.33;;;;;;;;;;1027723;28;20765;-72
2023/04/23 01:51:05;;;;;;;2.17;1.83;;;;;;;;;;1032062;28;20029;-72
2023/04/23 01:51:35;;;;;;;2.10;1.38;;;;;;;;;;1030476;28;20189;-72
2023/04/23 01:52:06;;;;;;;2.85;0.93;;;;;;;;;;1032143;28;20026;-72
2023/04/23 01:52:37;;;;;;;2.90;1.25;;;;;;;;;;1031956;28;20469;-72
2023/04/23 01:53:07;;;;;;;1.35;0.65;;;;;;;;;;1026668;28;20077;-73
2023/04/23 01:53:38;;;;;;;2.20;0.63;;;;;;;;;;1027308;28;20565;-73
2023/04/23 01:54:08;;;;;;;2.65;1.02;;;;;;;;;;1028494;28;20027;-73
2023/04/23 01:54:39;;;;;;;1.05;0.95;;;;;;;;;;1027470;28;20530;-73
2023/04/23 01:55:09;;;;;;;2.70;0.88;;;;;;;;;;1032009;28;20022;-73
2023/04/23 01:55:40;;;;;;;1.98;0.90;;;;;;;;;;1031742;28;20482;-73
2023/04/23 01:56:10;;;;;;;3.70;0.85;;;;;;;;;;1032746;28;20477;-72
2023/04/23 01:56:41;;;;;;;1.60;1.40;;;;;;;;;;1032426;28;20363;-72
2023/04/23 01:57:11;;;;;;;8.68;1.45;;;;;;;;;;1031990;28;20036;-72
2023/04/23 01:57:42;;;;;;;1.92;0.80;;;;;;;;;;1027412;28;20034;-72
2023/04/23 01:58:13;;;;;;;2.45;1.55;;;;;;;;;;1027706;28;20035;-72
2023/04/23 01:58:43;;;;;;;6.47;1.52;;;;;;;;;;1027778;28;20074;-72
2023/04/23 01:59:13;;;;;;;1.17;1.05;;;;;;;;;;1027728;28;20022;-72
2023/04/23 01:59:44;;;;;;;1.75;1.17;;;;;;;;;;1027488;28;20074;-72
2023/04/23 02:00:15;;;;;;;11.65;1.83;;;;;;;;;;1027640;28;20019;-72
2023/04/23 02:00:46;;;;;;;1.20;0.80;;;;;;;;;;1026668;28;20030;-72
2023/04/23 02:01:16;;;;;;;1.17;0.70;;;;;;;;;;1028083;28;20023;-72
2023/04/23 02:01:47;;;;;;;0.90;0.80;;;;;;;;;;1031756;28;20022;-72
2023/04/23 02:02:18;;;;;;;11.55;1.55;;;;;;;;;;1031956;28;20120;-72
2023/04/23 02:02:51;;;;;;;18.85;1.25;;;;;;;;;;1031710;28;20026;-72
2023/04/23 02:03:22;;;;;;;1.05;0.90;;;;;;;;;;1031994;28;20379;-72
2023/04/23 02:03:53;;;;;;;5.00;1.88;;;;;;;;;;1031927;28;20110;-72
2023/04/23 02:04:23;;;;;;;3.40;1.05;;;;;;;;;;1031823;28;20032;-72
2023/04/23 02:04:54;;;;;;;0.50;0.45;;;;;;;;;;1031968;28;20030;-72
2023/04/23 02:05:27;;;;;;;7.50;3.05;;;;;;;;;;1027289;28;20505;-72
2023/04/23 02:05:59;;;;;;;12.35;1.23;;;;;;;;;;1026414;28;20014;-72
2023/04/23 02:06:30;;;;;;;0.93;0.57;;;;;;;;;;1025942;28;20106;-72
2023/04/23 02:07:01;;;;;;;2.17;0.88;;;;;;;;;;1026455;28;20105;-72
2023/04/23 02:07:32;;;;;;;2.35;1.70;;;;;;;;;;1027774;28;20072;-72
2023/04/23 02:08:02;;;;;;;0.95;0.90;;;;;;;;;;1031997;28;20122;-72
2023/04/23 02:08:33;;;;;;;6.93;1.55;;;;;;;;;;1032168;28;20032;-72
2023/04/23 02:09:04;;;;;;;2.72;1.10;;;;;;;;;;1032088;28;20070;-72
2023/04/23 02:09:35;;;;;;;7.22;2.13;;;;;;;;;;1031686;28;20072;-72
2023/04/23 02:10:05;;;;;;;2.20;1.58;;;;;;;;;;1032037;28;20433;-72
2023/04/23 02:10:36;;;;;;;0.45;0.45;;;;;;;;;;1031867;28;20030;-72
2023/04/23 02:11:06;;;;;;;7.05;2.20;;;;;;;;;;1031904;28;20026;-72
2023/04/23 02:11:37;;;;;;;20.70;2.03;;;;;;;;;;1027473;28;20394;-72
2023/04/23 02:12:07;;;;;;;3.20;1.63;;;;;;;;;;1027717;28;20018;-72
2023/04/23 02:12:38;;;;;;;2.45;0.70;;;;;;;;;;1027610;28;20442;-72
2023/04/23 02:13:09;;;;;;;9.48;2.38;;;;;;;;;;1027747;28;20031;-72
2023/04/23 02:13:39;;;;;;;6.93;1.98;;;;;;;;;;1031244;28;20053;-72
2023/04/23 02:14:10;;;;;;;1.83;1.10;;;;;;;;;;1031897;28;20065;-72
2023/04/23 02:14:40;;;;;;;1.35;1.25;;;;;;;;;;1027286;28;20474;-72
2023/04/23 02:15:11;;;;;;;3.78;1.42;;;;;;;;;;1027640;28;20487;-72
2023/04/23 02:15:42;;;;;;;3.00;1.70;;;;;;;;;;1027274;28;20027;-72
2023/04/23 02:16:13;;;;;;;3.63;1.08;;;;;;;;;;1028638;28;20117;-72
2023/04/23 02:16:44;;;;;;;7.57;1.38;;;;;;;;;;1030683;28;20026;-72
2023/04/23 02:17:14;;;;;;;7.95;1.25;;;;;;;;;;1031876;28;20062;-72
2023/04/23 02:17:45;;;;;;;3.30;1.15;;;;;;;;;;1031994;28;20024;-72
2023/04/23 02:18:15;;;;;;;2.28;1.58;;;;;;;;;;1027642;28;20084;-72
2023/04/23 02:18:46;;;;;;;4.07;1.75;;;;;;;;;;1027601;28;20489;-72
2023/04/23 02:19:16;;;;;;;4.38;2.80;;;;;;;;;;1027587;28;20125;-72
2023/04/23 02:19:47;;;;;;;2.80;1.10;;;;;;;;;;1027519;28;20117;-72
2023/04/23 02:20:18;;;;;;;2.03;1.73;;;;;;;;;;1027416;28;20026;-72
2023/04/23 02:20:48;;;;;;;5.65;2.28;;;;;;;;;;1027436;28;20506;-72
2023/04/23 02:21:19;;;;;;;4.78;0.77;;;;;;;;;;1027325;28;20025;-72
2023/04/23 02:21:50;;;;;;;1.90;0.88;;;;;;;;;;1027583;28;20018;-72
2023/04/23 02:22:23;;;;;;;8.18;0.82;;;;;;;;;;1031980;28;20117;-73
2023/04/23 02:22:55;;;;;;;9.02;3.10;;;;;;;;;;1032161;28;20026;-73
2023/04/23 02:23:25;;;;;;;6.43;2.58;;;;;;;;;;1027383;28;20117;-72
2023/04/23 02:23:56;;;;;;;5.28;2.42;;;;;;;;;;1027825;28;20042;-73
2023/04/23 02:24:26;;;;;;;2.30;1.65;;;;;;;;;;1027714;28;20145;-73
2023/04/23 02:24:57;;;;;;;1.30;1.17;;;;;;;;;;1027623;28;20034;-73
2023/04/23 02:25:27;;;;;;;7.15;1.92;;;;;;;;;;1027210;28;20134;-72
2023/04/23 02:25:58;;;;;;;4.68;1.98;;;;;;;;;;1023518;29;20031;-72
2023/04/23 02:26:28;;;;;;;10.68;2.28;;;;;;;;;;1023449;28;20022;-72
2023/04/23 02:26:59;;;;;;;5.13;1.77;;;;;;;;;;1027587;28;20561;-72
2023/04/23 02:27:29;;;;;;;6.35;1.63;;;;;;;;;;1027264;28;20037;-72
2023/04/23 02:28:04;;;;;;;4.07;1.80;;;;;;;;;;1032050;28;20062;-72
2023/04/23 02:28:34;;;;;;;7.65;2.88;;;;;;;;;;1030621;28;20092;-72
2023/04/23 02:29:05;;;;;;;4.40;2.08;;;;;;;;;;1032013;28;20132;-72
2023/04/23 02:29:35;;;;;;;3.67;1.80;;;;;;;;;;1027186;28;20022;-72
2023/04/23 02:30:07;;;;;;;9.48;1.83;;;;;;;;;;1027580;28;20090;-72
2023/04/23 02:30:44;;;;;;;2.63;1.13;;;;;;;;;;1027617;28;20497;-72
2023/04/23 02:31:15;;;;;;;4.80;1.70;;;;;;;;;;1027006;28;20050;-72
2023/04/23 02:31:45;;;;;;;2.30;1.35;;;;;;;;;;1027394;28;20035;-72
2023/04/23 02:32:16;;;;;;;9.77;3.03;;;;;;;;;;1028601;28;20497;-72
2023/04/23 02:32:46;;;;;;;2.70;1.67;;;;;;;;;;1031850;28;20121;-72
2023/04/23 02:33:18;;;;;;;4.80;2.10;;;;;;;;;;1027524;28;20390;-72
2023/04/23 02:33:49;;;;;;;12.52;3.60;;;;;;;;;;1026659;28;20019;-72
2023/04/23 02:34:19;;;;;;;2.65;1.58;;;;;;;;;;1028359;28;20019;-72
2023/04/23 02:34:50;;;;;;;4.25;1.90;;;;;;;;;;1028387;28;20109;-72
2023/04/23 02:35:20;;;;;;;22.88;2.10;;;;;;;;;;1028253;28;20042;-72
2023/04/23 02:35:51;;;;;;;8.60;1.85;;;;;;;;;;1027962;28;20030;-72
2023/04/23 02:36:21;;;;;;;1.80;1.20;;;;;;;;;;1029060;28;20026;-72
2023/04/23 02:36:51;;;;;;;5.80;3.00;;;;;;;;;;1028409;28;20026;-74
2023/04/23 02:37:22;;;;;;;9.77;2.45;;;;;;;;;;1028505;28;20495;-73
2023/04/23 02:37:53;;;;;;;1.75;1.23;;;;;;;;;;1028507;28;20026;-73
2023/04/23 02:38:23;;;;;;;0.60;0.50;;;;;;;;;;1028620;28;20106;-73
2023/04/23 02:38:54;;;;;;;1.15;0.70;;;;;;;;;;1028562;28;20490;-73
2023/04/23 02:39:25;;;;;;;2.38;0.60;;;;;;;;;;1028143;28;20092;-73
2023/04/23 02:39:55;;;;;;;2.92;1.20;;;;;;;;;;1028332;28;20026;-73
2023/04/23 02:40:25;;;;;;;0.35;0.25;;;;;;;;;;1028160;28;20034;-73
2023/04/23 02:40:56;;;;;;;3.05;1.55;;;;;;;;;;1028917;28;20499;-73
2023/04/23 02:41:26;;;;;;;7.90;0.63;;;;;;;;;;1028199;28;20026;-73
2023/04/23 02:41:57;;;;;;;1.30;0.82;;;;;;;;;;1028787;28;20022;-73
2023/04/23 02:42:27;;;;;;;2.92;0.38;;;;;;;;;;1028411;28;20046;-73
2023/04/23 02:42:58;;;;;;;0.65;0.47;;;;;;;;;;1028915;28;20070;-73
2023/04/23 02:43:28;;;;;;;1.33;1.02;;;;;;;;;;1027985;28;20109;-73
2023/04/23 02:43:59;;;;;;;3.80;1.10;;;;;;;;;;1028534;28;20021;-73
2023/04/23 02:44:29;;;;;;;0.43;0.22;;;;;;;;;;1028300;28;20426;-73
2023/04/23 02:45:00;;;;;;;0.35;0.30;;;;;;;;;;1032754;28;20113;-73
2023/04/23 02:45:30;;;;;;;0.82;0.57;;;;;;;;;;1033084;28;20414;-73
2023/04/23 02:46:06;;;;;;;4.60;0.77;;;;;;;;;;1028277;28;20019;-73
2023/04/23 02:46:37;;;;;;;0.13;0.13;;;;;;;;;;1027382;28;20038;-73
2023/04/23 02:47:07;;;;;;;0.50;0.47;;;;;;;;;;1028518;28;20050;-73
2023/04/23 02:47:38;;;;;;;1.58;1.02;;;;;;;;;;1028110;28;20072;-73
2023/04/23 02:48:08;;;;;;;1.92;0.70;;;;;;;;;;1028981;28;20058;-73
2023/04/23 02:48:40;;;;;;;1.95;0.77;;;;;;;;;;1028262;28;20030;-73
2023/04/23 02:49:10;;;;;;;1.77;1.13;;;;;;;;;;1032940;28;20441;-73
2023/04/23 02:49:40;;;;;;;2.80;1.27;;;;;;;;;;1028338;28;20101;-73
2023/04/23 02:50:11;;;;;;;14.50;2.15;;;;;;;;;;1028738;28;20066;-73
2023/04/23 02:50:41;;;;;;;7.32;1.10;;;;;;;;;;1027896;28;20018;-73
2023/04/23 02:51:13;;;;;;;4.90;1.45;;;;;;;;;;1028792;28;20530;-73
2023/04/23 02:51:43;;;;;;;6.43;1.67;;;;;;;;;;1028402;28;20563;-73
2023/04/23 02:52:14;;;;;;;1.27;1.00;;;;;;;;;;1033870;28;20026;-73
2023/04/23 02:52:45;;;;;;;1.55;0.47;;;;;;;;;;1028511;28;20122;-73
2023/04/23 02:53:15;;;;;;;2.85;0.65;;;;;;;;;;1028489;28;20487;-73
2023/04/23 02:53:46;;;;;;;1.75;0.52;;;;;;;;;;1028242;28;20030;-73
2023/04/23 02:54:16;;;;;;;4.05;0.60;;;;;;;;;;1028580;28;20031;-73
2023/04/23 02:54:47;;;;;;;1.13;0.88;;;;;;;;;;1028866;28;20027;-73
2023/04/23 02:55:17;;;;;;;7.40;2.83;;;;;;;;;;1032749;28;20378;-73
2023/04/23 02:55:48;;;;;;;1.27;1.10;;;;;;;;;;1032536;28;20022;-73
2023/04/23 02:56:18;;;;;;;13.15;4.68;;;;;;;;;;1033150;28;20022;-73
2023/04/23 02:56:49;;;;;;;1.10;0.85;;;;;;;;;;1033276;28;20014;-73
2023/04/23 02:57:20;;;;;;;1.05;0.63;;;;;;;;;;1032789;28;20030;-74
2023/04/23 02:57:51;;;;;;;4.10;0.63;;;;;;;;;;1031568;28;20029;-74
2023/04/23 02:58:21;;;;;;;5.63;1.20;;;;;;;;;;1032763;28;20022;-74
2023/04/23 02:58:52;;;;;;;3.65;1.17;;;;;;;;;;1032637;28;20069;-74
2023/04/23 02:59:22;;;;;;;8.68;2.10;;;;;;;;;;1033206;28;20494;-74
2023/04/23 02:59:53;;;;;;;5.22;1.23;;;;;;;;;;1032643;28;20386;-74
2023/04/23 03:00:24;;;;;;;4.25;1.60;;;;;;;;;;1032641;28;20026;-74
2023/04/23 03:00:54;;;;;;;1.05;0.80;;;;;;;;;;1032797;28;20030;-74
2023/04/23 03:01:25;;;;;;;16.20;1.65;;;;;;;;;;1033027;28;20018;-74
2023/04/23 03:01:55;;;;;;;7.20;1.30;;;;;;;;;;1032851;28;20022;-74
2023/04/23 03:02:26;;;;;;;5.32;1.27;;;;;;;;;;1032946;28;20019;-74
2023/04/23 03:02:56;;;;;;;5.90;2.17;;;;;;;;;;1033509;28;20076;-74
2023/04/23 03:03:30;;;;;;;4.47;0.82;;;;;;;;;;1028203;28;20430;-74
2023/04/23 03:04:02;;;;;;;1.73;1.63;;;;;;;;;;1028161;28;20158;-74
2023/04/23 03:04:32;;;;;;;3.13;1.45;;;;;;;;;;1028393;28;20023;-74
2023/04/23 03:05:03;;;;;;;7.82;2.17;;;;;;;;;;1029299;28;20118;-74